createdAt,value
2022-10-23T00:01:27.285Z,16.48
2022-10-23T00:04:01.378Z,20.30
2022-10-23T00:06:29.841Z,16.88
2022-10-23T00:08:56.972Z,17.75
2022-10-23T00:11:27.625Z,24.15
2022-10-23T00:13:57.981Z,19.73
2022-10-23T00:16:24.816Z,19.85
2022-10-23T00:18:51.644Z,19.55
2022-10-23T00:21:18.656Z,20.88
2022-10-23T00:23:46.244Z,22.30
2022-10-23T00:26:16.663Z,21.58
2022-10-23T00:28:51.238Z,26.60
2022-10-23T00:31:20.213Z,20.98
2022-10-23T00:33:47.768Z,23.65
2022-10-23T00:36:17.125Z,23.27
2022-10-23T00:38:45.193Z,24.45
2022-10-23T00:41:28.741Z,19.65
2022-10-23T00:44:11.600Z,24.40
2022-10-23T00:46:39.457Z,19.05
2022-10-23T00:49:07.704Z,20.05
2022-10-23T00:51:49.732Z,18.98
2022-10-23T00:54:25.111Z,26.80
2022-10-23T00:56:57.488Z,26.88
2022-10-23T00:59:24.776Z,25.65
2022-10-23T01:01:52.155Z,14.45
2022-10-23T01:04:19.856Z,23.58
2022-10-23T01:07:01.886Z,26.23
2022-10-23T01:09:40.704Z,18.55
2022-10-23T01:12:54.540Z,31.92
2022-10-23T01:15:43.251Z,19.88
2022-10-23T01:18:24.677Z,30.75
2022-10-23T01:21:04.503Z,27.90
2022-10-23T01:23:56.871Z,27.63
2022-10-23T01:26:23.616Z,25.83
2022-10-23T01:29:24.539Z,28.48
2022-10-23T01:31:54.260Z,27.58
2022-10-23T01:34:30.865Z,31.85
2022-10-23T01:37:01.705Z,35.40
2022-10-23T01:39:35.809Z,26.85
2022-10-23T01:42:20.317Z,35.83
2022-10-23T01:44:51.257Z,38.13
2022-10-23T01:47:24.861Z,37.38
2022-10-23T01:49:54.114Z,41.08
2022-10-23T01:52:21.557Z,38.88
2022-10-23T01:54:52.016Z,39.55
2022-10-23T01:57:22.852Z,51.88
2022-10-23T02:00:00.694Z,38.17
2022-10-23T02:02:29.142Z,33.30
2022-10-23T02:05:04.167Z,36.90
2022-10-23T02:07:31.543Z,46.75
2022-10-23T02:09:59.203Z,42.42
2022-10-23T02:12:45.213Z,37.83
2022-10-23T02:15:31.414Z,35.92
2022-10-23T02:18:15.273Z,48.40
2022-10-23T02:20:54.249Z,42.80
2022-10-23T02:23:39.989Z,47.35
2022-10-23T02:26:22.188Z,41.78
2022-10-23T02:29:10.263Z,42.80
2022-10-23T02:31:37.272Z,42.55
2022-10-23T02:34:04.534Z,43.47
2022-10-23T02:36:31.724Z,49.92
2022-10-23T02:38:58.700Z,46.22
2022-10-23T02:41:48.102Z,44.05
2022-10-23T02:44:21.781Z,43.65
2022-10-23T02:47:28.829Z,52.25
2022-10-23T02:50:13.812Z,44.85
2022-10-23T02:53:04.225Z,45.88
2022-10-23T02:55:37.077Z,50.33
2022-10-23T02:58:11.045Z,49.25
2022-10-23T03:00:42.817Z,41.45
2022-10-23T03:03:16.138Z,42.38
2022-10-23T03:05:45.092Z,53.03
2022-10-23T03:08:14.682Z,42.95
2022-10-23T03:10:42.698Z,46.80
2022-10-23T03:13:11.439Z,49.67
2022-10-23T03:15:38.248Z,55.17
2022-10-23T03:18:05.539Z,51.42
2022-10-23T03:20:32.303Z,41.88
2022-10-23T03:22:59.090Z,50.08
2022-10-23T03:25:25.897Z,44.20
2022-10-23T03:27:52.676Z,45.40
2022-10-23T03:30:19.507Z,40.88
2022-10-23T03:32:46.444Z,51.88
2022-10-23T03:35:13.311Z,42.38
2022-10-23T03:37:40.244Z,45.60
2022-10-23T03:40:08.251Z,40.65
2022-10-23T03:42:35.052Z,46.20
2022-10-23T03:45:02.151Z,49.10
2022-10-23T03:47:30.597Z,59.65
2022-10-23T03:49:57.713Z,39.45
2022-10-23T03:55:12.115Z,42.78
2022-10-23T03:57:38.983Z,42.30
2022-10-23T04:00:07.685Z,44.63
2022-10-23T04:02:34.663Z,43.45
2022-10-23T04:05:01.789Z,38.85
2022-10-23T04:07:28.574Z,47.05
2022-10-23T04:09:55.364Z,41.63
2022-10-23T04:12:23.091Z,39.58
2022-10-23T04:14:49.860Z,37.63
2022-10-23T04:17:16.673Z,27.95
2022-10-23T04:19:43.499Z,33.08
2022-10-23T04:22:10.248Z,33.30
2022-10-23T04:24:37.129Z,31.27
2022-10-23T04:27:04.095Z,34.22
2022-10-23T04:29:32.654Z,31.42
2022-10-23T04:31:59.620Z,28.85
2022-10-23T04:34:26.419Z,24.75
2022-10-23T04:36:53.160Z,29.58
2022-10-23T04:39:20.156Z,33.67
2022-10-23T04:41:47.388Z,34.22
2022-10-23T04:44:14.485Z,30.48
2022-10-23T04:46:41.332Z,30.20
2022-10-23T04:49:08.361Z,35.97
2022-10-23T04:51:35.466Z,29.02
2022-10-23T04:54:02.241Z,37.58
2022-10-23T04:56:29.086Z,45.25
2022-10-23T04:58:55.928Z,32.17
2022-10-23T05:01:22.869Z,33.92
2022-10-23T05:03:49.922Z,31.63
2022-10-23T05:06:16.693Z,37.38
2022-10-23T05:08:43.457Z,39.20
2022-10-23T05:11:10.234Z,38.00
2022-10-23T05:13:37.104Z,47.38
2022-10-23T05:16:03.972Z,46.40
2022-10-23T05:18:36.314Z,39.97
2022-10-23T05:21:15.159Z,47.55
2022-10-23T05:23:44.811Z,45.92
2022-10-23T05:26:11.572Z,47.20
2022-10-23T05:28:38.380Z,43.42
2022-10-23T05:31:06.627Z,47.95
2022-10-23T05:33:35.221Z,45.35
2022-10-23T05:36:02.369Z,47.47
2022-10-23T05:38:33.422Z,47.00
2022-10-23T05:41:00.231Z,48.35
2022-10-23T05:43:27.509Z,33.80
2022-10-23T05:45:54.467Z,33.72
2022-10-23T05:48:34.361Z,36.55
2022-10-23T05:51:11.173Z,39.80
2022-10-23T05:53:40.353Z,39.17
2022-10-23T05:56:09.932Z,44.38
2022-10-23T05:58:36.830Z,37.80
2022-10-23T06:01:09.339Z,40.22
2022-10-23T06:03:37.954Z,43.20
2022-10-23T06:06:06.708Z,45.25
2022-10-23T06:08:35.276Z,45.90
2022-10-23T06:11:15.520Z,51.20
2022-10-23T06:13:46.642Z,39.38
2022-10-23T06:16:18.016Z,44.50
2022-10-23T06:18:49.233Z,47.08
2022-10-23T06:21:17.342Z,42.97
2022-10-23T06:23:45.941Z,44.00
2022-10-23T06:26:16.452Z,46.55
2022-10-23T06:28:43.792Z,37.58
2022-10-23T06:31:15.008Z,43.90
2022-10-23T06:33:42.316Z,35.35
2022-10-23T06:36:10.849Z,40.92
2022-10-23T06:38:40.711Z,40.63
2022-10-23T06:41:20.979Z,33.80
2022-10-23T06:43:50.591Z,40.13
2022-10-23T06:46:18.702Z,31.15
2022-10-23T06:48:45.637Z,40.72
2022-10-23T06:51:17.154Z,36.67
2022-10-23T06:53:45.565Z,36.92
2022-10-23T06:56:13.158Z,37.72
2022-10-23T06:58:40.656Z,33.60
2022-10-23T07:01:12.085Z,30.92
2022-10-23T07:03:39.115Z,28.30
2022-10-23T07:06:09.145Z,34.33
2022-10-23T07:08:36.994Z,31.38
2022-10-23T07:11:09.429Z,23.95
2022-10-23T07:13:38.685Z,29.10
2022-10-23T07:16:21.439Z,22.45
2022-10-23T07:18:50.137Z,22.58
2022-10-23T07:21:16.989Z,22.70
2022-10-23T07:23:44.180Z,20.33
2022-10-23T07:26:15.684Z,20.20
2022-10-23T07:28:45.296Z,21.75
2022-10-23T07:31:13.101Z,18.38
2022-10-23T07:33:40.208Z,19.75
2022-10-23T07:36:09.186Z,19.20
2022-10-23T07:38:36.229Z,18.30
2022-10-23T07:41:03.392Z,17.13
2022-10-23T07:43:30.228Z,16.05
2022-10-23T07:45:57.070Z,15.40
2022-10-23T07:48:24.908Z,13.57
2022-10-23T07:50:51.832Z,13.60
2022-10-23T07:53:23.301Z,18.70
2022-10-23T07:56:01.052Z,11.98
2022-10-23T07:58:29.310Z,7.45
2022-10-23T08:01:01.331Z,12.13
2022-10-23T08:03:32.300Z,23.23
2022-10-23T08:06:00.364Z,14.80
2022-10-23T08:08:27.241Z,14.02
2022-10-23T08:10:55.870Z,55.20
2022-10-23T08:13:23.375Z,16.08
2022-10-23T08:15:52.952Z,11.05
2022-10-23T08:18:19.976Z,10.30
2022-10-23T08:20:48.825Z,16.80
2022-10-23T08:23:19.008Z,19.77
2022-10-23T08:25:46.954Z,11.82
2022-10-23T08:28:13.774Z,17.95
2022-10-23T08:30:40.676Z,18.30
2022-10-23T08:33:07.700Z,12.82
2022-10-23T08:35:38.892Z,11.88
2022-10-23T08:38:07.138Z,8.57
2022-10-23T08:40:36.109Z,7.50
2022-10-23T08:43:12.466Z,5.75
2022-10-23T08:45:53.273Z,8.18
2022-10-23T08:48:33.828Z,4.30
2022-10-23T08:51:18.216Z,10.48
2022-10-23T08:53:54.657Z,10.23
2022-10-23T08:56:38.702Z,14.52
2022-10-23T08:59:20.659Z,14.48
2022-10-23T09:01:54.421Z,9.98
2022-10-23T09:04:21.538Z,8.60
2022-10-23T09:07:10.455Z,9.43
2022-10-23T09:10:14.336Z,9.25
2022-10-23T09:12:42.312Z,7.00
2022-10-23T09:15:30.810Z,3.30
2022-10-23T09:18:16.348Z,4.30
2022-10-23T09:23:24.992Z,4.57
2022-10-23T09:25:57.127Z,3.45
2022-10-23T09:28:50.529Z,4.80
2022-10-23T09:31:19.413Z,4.47
2022-10-23T09:34:01.784Z,3.17
2022-10-23T09:36:29.777Z,3.08
2022-10-23T09:39:00.359Z,2.80
2022-10-23T09:41:36.384Z,4.30
2022-10-23T09:44:30.064Z,4.13
2022-10-23T09:47:20.766Z,1.83
2022-10-23T09:49:54.261Z,1.33
2022-10-23T09:52:37.781Z,1.05
2022-10-23T09:55:21.680Z,3.97
2022-10-23T09:57:48.902Z,2.47
2022-10-23T10:00:27.825Z,0.82
2022-10-23T10:02:56.438Z,1.95
2022-10-23T10:05:31.172Z,2.33
2022-10-23T10:08:36.832Z,5.55
2022-10-23T10:11:44.165Z,5.47
2022-10-23T10:14:36.487Z,4.78
2022-10-23T10:17:20.323Z,3.10
2022-10-23T10:20:22.278Z,4.07
2022-10-23T10:23:23.404Z,4.93
2022-10-23T10:26:08.015Z,5.20
2022-10-23T10:29:03.198Z,5.50
2022-10-23T10:31:58.518Z,7.32
2022-10-23T10:34:33.373Z,7.18
2022-10-23T10:37:43.853Z,6.10
2022-10-23T10:40:47.348Z,5.07
2022-10-23T10:43:32.142Z,8.60
2022-10-23T10:46:32.537Z,6.88
2022-10-23T10:49:17.350Z,10.15
2022-10-23T10:52:01.418Z,8.82
2022-10-23T10:54:56.114Z,6.05
2022-10-23T10:57:43.073Z,7.32
2022-10-23T11:00:23.208Z,8.23
2022-10-23T11:03:05.768Z,7.00
2022-10-23T11:05:39.316Z,5.32
2022-10-23T11:08:10.454Z,7.78
2022-10-23T11:10:42.868Z,8.07
2022-10-23T11:13:27.407Z,9.90
2022-10-23T11:16:01.262Z,9.57
2022-10-23T11:18:31.377Z,11.57
2022-10-23T11:21:10.369Z,17.77
2022-10-23T11:23:55.520Z,17.45
2022-10-23T11:27:02.186Z,15.63
2022-10-23T11:29:36.370Z,10.45
2022-10-23T11:32:29.582Z,7.37
2022-10-23T11:35:39.995Z,10.35
2022-10-23T11:38:16.922Z,12.30
2022-10-23T11:40:52.080Z,6.43
2022-10-23T11:43:57.376Z,7.45
2022-10-23T11:46:25.721Z,5.78
2022-10-23T11:48:55.092Z,5.70
2022-10-23T11:51:34.460Z,5.68
2022-10-23T11:54:11.756Z,5.30
2022-10-23T11:56:51.698Z,3.72
2022-10-23T11:59:33.087Z,2.97
2022-10-23T12:02:03.896Z,3.47
2022-10-23T12:04:50.853Z,3.55
2022-10-23T12:07:29.378Z,3.75
2022-10-23T12:10:00.308Z,3.85
2022-10-23T12:12:43.245Z,1.92
2022-10-23T12:15:15.785Z,3.90
2022-10-23T12:17:44.033Z,3.40
2022-10-23T12:20:11.340Z,3.60
2022-10-23T12:23:00.578Z,9.63
2022-10-23T12:26:12.388Z,2.75
2022-10-23T12:29:11.183Z,3.05
2022-10-23T12:32:00.082Z,1.95
2022-10-23T12:34:48.784Z,2.97
2022-10-23T12:37:49.503Z,3.67
2022-10-23T12:40:16.785Z,4.63
2022-10-23T12:42:53.824Z,3.08
2022-10-23T12:45:28.956Z,2.95
2022-10-23T12:50:27.485Z,5.30
2022-10-23T12:53:01.095Z,3.83
2022-10-23T12:55:35.170Z,2.92
2022-10-23T12:58:03.096Z,4.15
2022-10-23T13:00:31.200Z,2.92
2022-10-23T13:03:00.971Z,5.35
2022-10-23T13:05:29.691Z,2.55
2022-10-23T13:07:59.628Z,3.60
2022-10-23T13:10:26.838Z,5.55
2022-10-23T13:13:05.139Z,6.32
2022-10-23T13:15:44.984Z,8.32
2022-10-23T13:18:17.355Z,2.78
2022-10-23T13:20:53.223Z,3.45
2022-10-23T13:23:31.285Z,4.00
2022-10-23T13:26:25.262Z,3.80
2022-10-23T13:28:52.609Z,3.83
2022-10-23T13:31:35.231Z,7.45
2022-10-23T13:34:01.921Z,2.88
2022-10-23T13:36:34.380Z,2.53
2022-10-23T13:39:10.131Z,3.28
2022-10-23T13:41:42.745Z,3.88
2022-10-23T13:44:13.356Z,4.68
2022-10-23T13:46:40.566Z,2.85
2022-10-23T13:49:07.377Z,3.47
2022-10-23T13:51:42.647Z,3.33
2022-10-23T13:54:36.046Z,1.92
2022-10-23T13:57:02.841Z,3.92
2022-10-23T13:59:29.816Z,2.85
2022-10-23T14:01:56.874Z,2.08
2022-10-23T14:04:24.084Z,1.67
2022-10-23T14:06:51.182Z,3.03
2022-10-23T14:09:18.888Z,3.95
2022-10-23T14:11:46.034Z,3.38
2022-10-23T14:14:13.360Z,2.00
2022-10-23T14:16:40.170Z,4.60
2022-10-23T14:19:08.062Z,1.92
2022-10-23T14:21:34.952Z,3.72
2022-10-23T14:24:01.685Z,3.38
2022-10-23T14:26:30.462Z,2.53
2022-10-23T14:29:02.253Z,1.70
2022-10-23T14:31:33.640Z,2.13
2022-10-23T14:34:01.842Z,3.92
2022-10-23T14:36:38.537Z,4.63
2022-10-23T14:39:16.919Z,5.20
2022-10-23T14:41:43.879Z,1.60
2022-10-23T14:44:10.625Z,2.45
2022-10-23T14:46:38.582Z,3.15
2022-10-23T14:49:06.023Z,1.40
2022-10-23T14:51:33.548Z,2.13
2022-10-23T14:54:05.755Z,3.38
2022-10-23T14:56:37.373Z,2.13
2022-10-23T14:59:04.849Z,2.58
2022-10-23T15:01:34.976Z,2.95
2022-10-23T15:04:02.185Z,3.70
2022-10-23T15:06:29.292Z,3.60
2022-10-23T15:08:56.153Z,4.18
2022-10-23T15:11:25.139Z,4.07
2022-10-23T15:13:53.051Z,3.63
2022-10-23T15:16:20.063Z,3.35
2022-10-23T15:18:47.397Z,4.72
2022-10-23T15:21:15.065Z,3.75
2022-10-23T15:23:44.669Z,2.58
2022-10-23T15:26:21.279Z,2.92
2022-10-23T15:28:55.818Z,3.70
2022-10-23T15:31:37.962Z,6.40
2022-10-23T15:34:05.980Z,5.38
2022-10-23T15:36:33.629Z,5.22
2022-10-23T15:39:01.193Z,5.32
2022-10-23T15:41:31.329Z,6.32
2022-10-23T15:44:02.704Z,4.40
2022-10-23T15:46:29.818Z,4.57
2022-10-23T15:48:59.772Z,4.20
2022-10-23T15:51:26.975Z,3.65
2022-10-23T15:53:54.045Z,4.55
2022-10-23T15:56:21.175Z,3.17
2022-10-23T15:58:48.140Z,3.55
2022-10-23T16:01:15.058Z,4.53
2022-10-23T16:03:42.420Z,3.80
2022-10-23T16:06:13.453Z,3.17
2022-10-23T16:08:44.130Z,8.27
2022-10-23T16:11:25.405Z,4.45
2022-10-23T16:13:52.247Z,4.35
2022-10-23T16:16:19.110Z,4.40
2022-10-23T16:18:46.606Z,4.10
2022-10-23T16:21:26.115Z,8.18
2022-10-23T16:23:56.604Z,4.07
2022-10-23T16:26:24.741Z,4.65
2022-10-23T16:29:01.723Z,7.65
2022-10-23T16:31:29.980Z,3.97
2022-10-23T16:34:02.035Z,3.60
2022-10-23T16:36:30.014Z,5.28
2022-10-23T16:38:56.904Z,5.75
2022-10-23T16:41:23.767Z,5.30
2022-10-23T16:43:50.880Z,5.15
2022-10-23T16:46:20.927Z,10.27
2022-10-23T16:48:49.474Z,15.13
2022-10-23T16:51:20.504Z,18.55
2022-10-23T16:53:48.396Z,15.85
2022-10-23T16:56:19.430Z,16.27
2022-10-23T16:58:46.373Z,13.63
2022-10-23T17:01:20.883Z,13.82
2022-10-23T17:03:50.879Z,11.40
2022-10-23T17:06:21.726Z,11.30
2022-10-23T17:08:49.116Z,11.98
2022-10-23T17:11:19.644Z,8.93
2022-10-23T17:14:02.113Z,9.77
2022-10-23T17:16:41.616Z,8.02
2022-10-23T17:19:20.507Z,6.47
2022-10-23T17:21:55.652Z,9.18
2022-10-23T17:24:23.719Z,6.88
2022-10-23T17:26:50.965Z,8.35
2022-10-23T17:29:18.628Z,6.30
2022-10-23T17:31:50.309Z,10.43
2022-10-23T17:34:21.789Z,11.05
2022-10-23T17:36:53.637Z,15.15
2022-10-23T17:39:26.248Z,10.68
2022-10-23T17:41:54.507Z,19.05
2022-10-23T17:44:21.807Z,25.73
2022-10-23T17:46:55.871Z,71.22
2022-10-23T17:49:25.027Z,57.80
2022-10-23T17:51:55.049Z,71.45
2022-10-23T17:54:22.869Z,39.67
2022-10-23T17:56:50.386Z,29.20
2022-10-23T17:59:21.437Z,16.92
2022-10-23T18:01:49.904Z,14.88
2022-10-23T18:04:19.902Z,14.00
2022-10-23T18:06:53.639Z,14.25
2022-10-23T18:09:22.207Z,11.15
2022-10-23T18:11:49.728Z,12.48
2022-10-23T18:14:19.913Z,13.55
2022-10-23T18:16:47.241Z,14.25
2022-10-23T18:19:15.466Z,11.35
2022-10-23T18:21:42.674Z,8.93
2022-10-23T18:24:09.999Z,7.53
2022-10-23T18:26:39.967Z,9.73
2022-10-23T18:29:07.906Z,9.18
2022-10-23T18:31:37.461Z,7.05
2022-10-23T18:34:37.006Z,9.77
2022-10-23T18:37:03.792Z,9.68
2022-10-23T18:39:30.598Z,12.27
2022-10-23T18:41:58.973Z,7.30
2022-10-23T18:44:29.311Z,8.23
2022-10-23T18:46:59.379Z,8.50
2022-10-23T18:49:26.928Z,11.38
2022-10-23T18:51:54.419Z,9.38
2022-10-23T18:54:21.908Z,7.95
2022-10-23T18:56:49.580Z,10.23
2022-10-23T18:59:19.985Z,14.02
2022-10-23T19:01:47.092Z,10.45
2022-10-23T19:04:16.053Z,12.20
2022-10-23T19:06:43.233Z,12.13
2022-10-23T19:09:13.882Z,9.57
2022-10-23T19:11:42.905Z,13.77
2022-10-23T19:14:10.120Z,14.70
2022-10-23T19:16:50.759Z,17.17
2022-10-23T19:19:26.092Z,17.25
2022-10-23T19:21:54.250Z,22.58
2022-10-23T19:24:27.204Z,18.23
2022-10-23T19:26:55.022Z,15.75
2022-10-23T19:29:24.901Z,17.92
2022-10-23T19:31:51.881Z,15.07
2022-10-23T19:34:22.951Z,15.68
2022-10-23T19:36:51.822Z,14.35
2022-10-23T19:39:19.702Z,12.93
2022-10-23T19:41:46.980Z,10.77
2022-10-23T19:44:15.206Z,11.55
2022-10-23T19:46:42.105Z,17.83
2022-10-23T19:49:10.140Z,14.05
2022-10-23T19:51:37.239Z,11.32
2022-10-23T19:54:04.914Z,12.30
2022-10-23T19:56:31.922Z,15.75
2022-10-23T19:58:58.679Z,10.70
2022-10-23T20:01:26.285Z,15.30
2022-10-23T20:03:54.933Z,12.40
2022-10-23T20:06:31.907Z,17.58
2022-10-23T20:08:58.747Z,18.58
2022-10-23T20:11:29.621Z,11.98
2022-10-23T20:13:59.381Z,16.27
2022-10-23T20:16:30.352Z,13.77
2022-10-23T20:18:58.122Z,13.05
2022-10-23T20:21:25.848Z,10.30
2022-10-23T20:23:52.764Z,11.98
2022-10-23T20:26:23.836Z,13.23
2022-10-23T20:28:55.034Z,7.38
2022-10-23T20:31:25.299Z,7.95
2022-10-23T20:33:52.682Z,6.25
2022-10-23T20:36:28.480Z,7.43
2022-10-23T20:38:57.301Z,5.65
2022-10-23T20:41:27.348Z,7.22
2022-10-23T20:43:57.919Z,5.40
2022-10-23T20:46:24.791Z,6.78
2022-10-23T20:48:52.148Z,4.63
2022-10-23T20:51:22.371Z,7.68
2022-10-23T20:53:51.157Z,7.25
2022-10-23T20:56:32.413Z,6.30
2022-10-23T20:59:01.061Z,6.55
2022-10-23T21:01:30.510Z,4.15
2022-10-23T21:04:00.642Z,6.18
2022-10-23T21:06:45.399Z,6.45
2022-10-23T21:09:17.421Z,6.78
2022-10-23T21:11:44.262Z,4.47
2022-10-23T21:14:11.073Z,4.97
2022-10-23T21:16:44.620Z,5.38
2022-10-23T21:19:16.128Z,4.88
2022-10-23T21:21:44.405Z,5.45
2022-10-23T21:24:15.320Z,4.68
2022-10-23T21:26:42.578Z,4.78
2022-10-23T21:29:19.066Z,5.72
2022-10-23T21:31:55.521Z,3.58
2022-10-23T21:34:24.445Z,4.95
2022-10-23T21:39:38.577Z,5.07
2022-10-23T21:42:05.603Z,5.38
2022-10-23T21:44:32.464Z,4.95
2022-10-23T21:46:59.238Z,3.97
2022-10-23T21:49:26.024Z,6.20
2022-10-23T21:51:55.119Z,4.45
2022-10-23T21:54:22.761Z,4.68
2022-10-23T21:56:53.875Z,8.15
2022-10-23T21:59:25.838Z,3.75
2022-10-23T22:01:54.904Z,6.10
2022-10-23T22:04:22.259Z,5.85
2022-10-23T22:06:50.290Z,6.82
2022-10-23T22:09:20.176Z,5.10
2022-10-23T22:11:50.304Z,9.52
2022-10-23T22:14:17.531Z,4.40
2022-10-23T22:16:44.827Z,4.38
2022-10-23T22:19:14.231Z,8.13
2022-10-23T22:21:41.763Z,6.63
2022-10-23T22:24:10.057Z,6.22
2022-10-23T22:26:41.407Z,4.53
2022-10-23T22:29:21.116Z,7.18
2022-10-23T22:31:49.872Z,6.88
2022-10-23T22:34:48.428Z,5.20
2022-10-23T22:37:14.058Z,4.57
2022-10-23T22:39:41.351Z,8.93
2022-10-23T22:42:08.290Z,5.43
2022-10-23T22:44:35.147Z,6.82
2022-10-23T22:47:01.879Z,4.75
2022-10-23T22:49:28.640Z,8.82
2022-10-23T22:51:55.647Z,9.40
2022-10-23T22:54:22.416Z,7.25
2022-10-23T22:56:49.249Z,5.25
2022-10-23T22:59:16.058Z,7.45
2022-10-23T23:01:46.523Z,5.93
2022-10-23T23:07:07.169Z,9.48
2022-10-23T23:09:38.013Z,5.78
2022-10-23T23:12:06.351Z,4.28
2022-10-23T23:14:33.250Z,4.45
2022-10-23T23:17:00.322Z,6.32
2022-10-23T23:19:28.602Z,8.40
2022-10-23T23:21:58.325Z,9.85
2022-10-23T23:24:26.255Z,28.38
2022-10-23T23:26:53.463Z,4.90
2022-10-23T23:29:20.241Z,6.93
2022-10-23T23:31:49.809Z,5.00
2022-10-23T23:34:16.643Z,6.82
2022-10-23T23:36:43.431Z,7.40
2022-10-23T23:39:10.580Z,4.68
2022-10-23T23:41:37.989Z,9.30
2022-10-23T23:44:05.214Z,6.03
2022-10-23T23:46:31.984Z,8.10
2022-10-23T23:48:58.733Z,4.63
2022-10-23T23:51:25.994Z,6.90
2022-10-23T23:53:53.326Z,5.95
2022-10-23T23:56:21.483Z,7.30
2022-10-23T23:58:48.584Z,10.60
